createdAt,value
2023-06-04T00:00:20.221Z,77.48
2023-06-04T00:01:20.185Z,77.57
2023-06-04T00:02:20.200Z,77.81
2023-06-04T00:03:20.347Z,78.17
2023-06-04T00:04:20.246Z,78.31
2023-06-04T00:05:20.142Z,78.32
2023-06-04T00:06:20.160Z,78.06
2023-06-04T00:07:20.145Z,78.21
2023-06-04T00:08:20.160Z,78.33
2023-06-04T00:09:20.173Z,78.77
2023-06-04T00:10:20.156Z,78.47
2023-06-04T00:11:20.147Z,78.44
2023-06-04T00:12:20.109Z,78.46
2023-06-04T00:13:20.147Z,78.31
2023-06-04T00:14:20.094Z,78.57
2023-06-04T00:15:20.112Z,78.41
2023-06-04T00:16:20.094Z,78.50
2023-06-04T00:17:20.071Z,78.36
2023-06-04T00:18:20.093Z,78.13
2023-06-04T00:19:20.083Z,78.44
2023-06-04T00:20:20.054Z,78.23
2023-06-04T00:21:20.040Z,77.99
2023-06-04T00:22:20.026Z,78.05
2023-06-04T00:23:20.031Z,77.84
2023-06-04T00:24:20.050Z,77.98
2023-06-04T00:25:20.041Z,78.05
2023-06-04T00:26:20.035Z,78.37
2023-06-04T00:27:20.001Z,78.19
2023-06-04T00:28:20.008Z,78.36
2023-06-04T00:29:19.974Z,78.45
2023-06-04T00:30:20.014Z,78.20
2023-06-04T00:31:19.992Z,77.91
2023-06-04T00:32:19.954Z,78.04
2023-06-04T00:33:20.040Z,77.91
2023-06-04T00:34:20.028Z,78.22
2023-06-04T00:35:20.093Z,78.70
2023-06-04T00:36:20.121Z,78.42
2023-06-04T00:37:20.108Z,78.19
2023-06-04T00:38:20.184Z,78.47
2023-06-04T00:39:20.215Z,78.90
2023-06-04T00:40:20.245Z,79.05
2023-06-04T00:41:20.260Z,78.95
2023-06-04T00:42:20.325Z,79.49
2023-06-04T00:43:20.339Z,78.84
2023-06-04T00:44:20.299Z,79.18
2023-06-04T00:45:20.358Z,78.65
2023-06-04T00:46:20.480Z,79.21
2023-06-04T00:47:20.403Z,78.75
2023-06-04T00:48:20.381Z,78.56
2023-06-04T00:49:20.423Z,78.24
2023-06-04T00:50:20.497Z,78.35
2023-06-04T00:51:20.468Z,78.62
2023-06-04T00:52:20.564Z,78.25
2023-06-04T00:53:20.549Z,78.10
2023-06-04T00:54:20.629Z,78.23
2023-06-04T00:55:20.643Z,78.49
2023-06-04T00:56:20.689Z,78.83
2023-06-04T00:57:20.713Z,78.60
2023-06-04T00:58:20.724Z,78.45
2023-06-04T00:59:20.716Z,78.61
2023-06-04T01:00:20.758Z,78.68
2023-06-04T01:01:20.805Z,78.84
2023-06-04T01:02:20.832Z,79.10
2023-06-04T01:03:20.836Z,78.98
2023-06-04T01:04:20.841Z,79.04
2023-06-04T01:05:20.877Z,78.81
2023-06-04T01:06:20.868Z,78.41
2023-06-04T01:07:22.018Z,77.99
2023-06-04T01:08:20.963Z,78.18
2023-06-04T01:09:20.987Z,78.89
2023-06-04T01:10:20.985Z,78.51
2023-06-04T01:11:21.041Z,78.42
2023-06-04T01:12:21.043Z,78.94
2023-06-04T01:13:21.049Z,78.88
2023-06-04T01:14:21.095Z,78.59
2023-06-04T01:15:21.064Z,79.01
2023-06-04T01:16:21.096Z,79.02
2023-06-04T01:17:21.236Z,78.91
2023-06-04T01:18:21.130Z,79.13
2023-06-04T01:19:21.149Z,79.32
2023-06-04T01:20:21.174Z,79.16
2023-06-04T01:21:21.193Z,78.94
2023-06-04T01:22:21.217Z,78.59
2023-06-04T01:23:21.254Z,78.73
2023-06-04T01:24:21.264Z,78.61
2023-06-04T01:25:21.256Z,78.35
2023-06-04T01:26:21.339Z,78.69
2023-06-04T01:27:21.367Z,78.34
2023-06-04T01:28:21.357Z,78.21
2023-06-04T01:29:21.398Z,77.91
2023-06-04T01:30:21.349Z,77.83
2023-06-04T01:31:21.515Z,77.75
2023-06-04T01:32:21.409Z,78.18
2023-06-04T01:33:21.453Z,78.18
2023-06-04T01:34:21.581Z,78.37
2023-06-04T01:35:21.545Z,78.17
2023-06-04T01:36:21.600Z,78.26
2023-06-04T01:37:21.594Z,78.09
2023-06-04T01:38:21.675Z,77.88
2023-06-04T01:39:21.679Z,77.69
2023-06-04T01:40:21.697Z,78.15
2023-06-04T01:41:21.754Z,77.88
2023-06-04T01:42:21.729Z,78.31
2023-06-04T01:43:21.790Z,78.66
2023-06-04T01:44:23.827Z,78.57
2023-06-04T01:45:21.855Z,78.49
2023-06-04T01:46:21.912Z,78.24
2023-06-04T01:47:21.922Z,78.30
2023-06-04T01:48:21.968Z,78.26
2023-06-04T01:49:21.999Z,78.26
2023-06-04T01:50:22.030Z,78.23
2023-06-04T01:51:22.061Z,77.82
2023-06-04T01:52:22.098Z,77.93
2023-06-04T01:53:22.109Z,77.97
2023-06-04T01:54:22.184Z,77.70
2023-06-04T01:55:22.223Z,77.86
2023-06-04T01:56:22.326Z,78.21
2023-06-04T01:57:22.240Z,77.87
2023-06-04T01:58:22.776Z,77.72
2023-06-04T01:59:22.385Z,77.78
2023-06-04T02:00:22.370Z,77.92
2023-06-04T02:01:22.382Z,78.37
2023-06-04T02:02:22.436Z,78.38
2023-06-04T02:03:22.461Z,78.25
2023-06-04T02:04:22.446Z,77.93
2023-06-04T02:05:22.476Z,78.10
2023-06-04T02:06:22.529Z,78.48
2023-06-04T02:07:22.580Z,78.13
2023-06-04T02:08:22.575Z,78.02
2023-06-04T02:09:22.688Z,77.82
2023-06-04T02:10:22.603Z,77.73
2023-06-04T02:11:22.622Z,77.45
2023-06-04T02:12:22.620Z,78.15
2023-06-04T02:13:22.734Z,78.21
2023-06-04T02:14:22.764Z,77.98
2023-06-04T02:15:22.785Z,78.22
2023-06-04T02:16:22.859Z,77.95
2023-06-04T02:17:22.849Z,77.85
2023-06-04T02:18:22.868Z,78.38
2023-06-04T02:19:22.915Z,78.06
2023-06-04T02:20:22.905Z,77.90
2023-06-04T02:21:22.968Z,77.75
2023-06-04T02:22:23.032Z,77.24
2023-06-04T02:23:23.057Z,77.36
2023-06-04T02:24:23.121Z,77.63
2023-06-04T02:25:23.111Z,78.06
2023-06-04T02:26:23.186Z,77.77
2023-06-04T02:27:24.044Z,77.49
2023-06-04T02:28:23.239Z,77.57
2023-06-04T02:29:23.296Z,77.31
2023-06-04T02:30:23.279Z,77.29
2023-06-04T02:31:23.319Z,77.39
2023-06-04T02:32:23.495Z,77.29
2023-06-04T02:33:23.342Z,77.59
2023-06-04T02:34:23.392Z,78.06
2023-06-04T02:35:23.409Z,78.20
2023-06-04T02:36:23.449Z,77.95
2023-06-04T02:37:23.485Z,78.01
2023-06-04T02:38:23.520Z,77.80
2023-06-04T02:39:23.481Z,77.92
2023-06-04T02:40:23.509Z,78.30
2023-06-04T02:41:23.576Z,78.11
2023-06-04T02:42:23.528Z,78.33
2023-06-04T02:43:23.576Z,78.11
2023-06-04T02:44:24.196Z,78.27
2023-06-04T02:45:23.615Z,78.03
2023-06-04T02:46:23.675Z,77.62
2023-06-04T02:47:23.701Z,77.66
2023-06-04T02:48:23.698Z,77.95
2023-06-04T02:49:23.705Z,77.73
2023-06-04T02:50:23.813Z,78.06
2023-06-04T02:51:23.828Z,78.17
2023-06-04T02:52:23.822Z,78.39
2023-06-04T02:53:23.847Z,78.49
2023-06-04T02:54:23.911Z,78.47
2023-06-04T02:55:23.928Z,78.31
2023-06-04T02:56:23.950Z,78.14
2023-06-04T02:57:23.985Z,78.19
2023-06-04T02:58:24.032Z,78.14
2023-06-04T02:59:24.050Z,78.12
2023-06-04T03:00:24.056Z,77.87
2023-06-04T03:01:24.126Z,77.78
2023-06-04T03:02:24.094Z,77.88
2023-06-04T03:03:24.164Z,78.02
2023-06-04T03:04:24.208Z,77.95
2023-06-04T03:05:24.275Z,77.76
2023-06-04T03:06:24.293Z,77.65
2023-06-04T03:07:24.342Z,77.95
2023-06-04T03:08:24.417Z,77.88
2023-06-04T03:09:24.383Z,77.93
2023-06-04T03:10:24.415Z,77.89
2023-06-04T03:11:24.452Z,77.85
2023-06-04T03:12:24.465Z,77.65
2023-06-04T03:13:24.481Z,77.53
2023-06-04T03:14:24.460Z,77.29
2023-06-04T03:15:24.477Z,77.16
2023-06-04T03:16:24.606Z,77.23
2023-06-04T03:17:24.544Z,77.62
2023-06-04T03:18:24.538Z,77.55
2023-06-04T03:19:24.642Z,77.92
2023-06-04T03:20:24.694Z,78.06
2023-06-04T03:21:24.647Z,77.64
2023-06-04T03:22:24.642Z,77.72
2023-06-04T03:23:24.737Z,77.68
2023-06-04T03:24:24.748Z,77.77
2023-06-04T03:25:24.760Z,77.87
2023-06-04T03:26:24.755Z,77.80
2023-06-04T03:27:24.779Z,77.51
2023-06-04T03:28:24.782Z,77.24
2023-06-04T03:29:24.794Z,77.13
2023-06-04T03:30:24.812Z,77.16
2023-06-04T03:31:24.862Z,77.42
2023-06-04T03:32:24.880Z,77.76
2023-06-04T03:33:24.860Z,77.43
2023-06-04T03:34:24.917Z,77.57
2023-06-04T03:35:24.915Z,77.50
2023-06-04T03:36:24.890Z,77.67
2023-06-04T03:37:25.001Z,77.28
2023-06-04T03:38:24.954Z,77.06
2023-06-04T03:39:24.962Z,76.94
2023-06-04T03:40:24.966Z,77.00
2023-06-04T03:41:24.965Z,76.99
2023-06-04T03:42:24.987Z,77.09
2023-06-04T03:43:25.033Z,77.55
2023-06-04T03:44:25.041Z,77.81
2023-06-04T03:45:25.042Z,77.42
2023-06-04T03:46:25.093Z,77.13
2023-06-04T03:47:25.147Z,77.48
2023-06-04T03:48:25.118Z,77.45
2023-06-04T03:49:25.125Z,77.06
2023-06-04T03:50:25.152Z,76.87
2023-06-04T03:51:25.198Z,76.79
2023-06-04T03:52:25.202Z,76.83
2023-06-04T03:53:25.263Z,76.96
2023-06-04T03:54:25.258Z,76.77
2023-06-04T03:55:25.298Z,76.77
2023-06-04T03:56:25.323Z,76.79
2023-06-04T03:57:25.328Z,76.59
2023-06-04T03:58:25.341Z,76.44
2023-06-04T03:59:25.411Z,76.27
2023-06-04T04:00:25.405Z,76.59
2023-06-04T04:01:25.411Z,76.60
2023-06-04T04:02:25.687Z,76.60
2023-06-04T04:03:25.602Z,76.21
2023-06-04T04:04:25.584Z,76.08
2023-06-04T04:05:25.552Z,76.38
2023-06-04T04:06:25.600Z,76.70
2023-06-04T04:07:25.591Z,76.69
2023-06-04T04:08:25.662Z,76.64
2023-06-04T04:09:25.696Z,76.43
2023-06-04T04:10:25.784Z,76.51
2023-06-04T04:11:25.819Z,76.53
2023-06-04T04:12:25.856Z,76.49
2023-06-04T04:13:25.908Z,76.66
2023-06-04T04:14:25.915Z,76.72
2023-06-04T04:15:25.978Z,76.32
2023-06-04T04:16:26.063Z,76.13
2023-06-04T04:17:26.022Z,76.38
2023-06-04T04:18:25.993Z,76.62
2023-06-04T04:19:26.047Z,76.27
2023-06-04T04:20:26.075Z,76.42
2023-06-04T04:21:26.130Z,76.18
2023-06-04T04:22:26.184Z,75.80
2023-06-04T04:23:26.204Z,75.46
2023-06-04T04:24:26.239Z,75.45
2023-06-04T04:25:26.238Z,75.24
2023-06-04T04:26:26.244Z,75.05
2023-06-04T04:27:26.267Z,74.41
2023-06-04T04:28:26.262Z,74.23
2023-06-04T04:29:26.259Z,74.21
2023-06-04T04:30:26.289Z,74.13
2023-06-04T04:31:26.364Z,74.12
2023-06-04T04:32:26.369Z,73.98
2023-06-04T04:33:26.353Z,73.62
2023-06-04T04:34:26.363Z,73.30
2023-06-04T04:35:26.419Z,73.08
2023-06-04T04:36:26.432Z,73.35
2023-06-04T04:37:26.485Z,73.61
2023-06-04T04:38:26.455Z,73.25
2023-06-04T04:39:26.549Z,72.90
2023-06-04T04:40:26.648Z,72.99
2023-06-04T04:41:26.625Z,72.55
2023-06-04T04:42:26.696Z,72.27
2023-06-04T04:43:26.722Z,71.82
2023-06-04T04:44:26.748Z,71.82
2023-06-04T04:45:26.735Z,71.71
2023-06-04T04:46:26.795Z,71.57
2023-06-04T04:47:26.800Z,71.04
2023-06-04T04:48:26.786Z,70.94
2023-06-04T04:49:26.861Z,70.74
2023-06-04T04:50:26.919Z,70.84
2023-06-04T04:51:26.913Z,70.25
2023-06-04T04:52:26.979Z,70.61
2023-06-04T04:53:27.002Z,70.23
2023-06-04T04:54:27.018Z,69.47
2023-06-04T04:55:27.033Z,68.82
2023-06-04T04:56:27.108Z,68.98
2023-06-04T04:57:27.078Z,67.44
2023-06-04T04:58:27.180Z,67.83
2023-06-04T04:59:27.165Z,67.06
2023-06-04T05:00:27.195Z,67.21
2023-06-04T05:01:27.302Z,66.01
2023-06-04T05:02:27.334Z,66.19
2023-06-04T05:03:27.277Z,65.33
2023-06-04T05:04:27.422Z,65.06
2023-06-04T05:05:27.374Z,65.04
2023-06-04T05:06:27.388Z,64.82
2023-06-04T05:07:27.414Z,64.44
2023-06-04T05:08:27.474Z,63.83
2023-06-04T05:09:27.521Z,64.31
2023-06-04T05:10:27.542Z,63.23
2023-06-04T05:11:27.495Z,63.39
2023-06-04T05:12:27.512Z,63.48
2023-06-04T05:13:27.597Z,63.34
2023-06-04T05:14:27.601Z,62.76
2023-06-04T05:15:27.893Z,62.36
2023-06-04T05:16:27.694Z,61.44
2023-06-04T05:17:27.695Z,61.45
2023-06-04T05:18:27.720Z,61.17
2023-06-04T05:19:27.801Z,61.95
2023-06-04T05:20:27.740Z,62.21
2023-06-04T05:21:27.803Z,61.95
2023-06-04T05:22:27.811Z,62.21
2023-06-04T05:23:27.832Z,62.39
2023-06-04T05:24:27.872Z,62.46
2023-06-04T05:25:27.841Z,62.55
2023-06-04T05:26:27.876Z,62.23
2023-06-04T05:27:27.874Z,62.16
2023-06-04T05:28:27.895Z,62.38
2023-06-04T05:29:27.955Z,62.14
2023-06-04T05:30:27.959Z,61.82
2023-06-04T05:31:28.024Z,61.72
2023-06-04T05:32:28.049Z,61.69
2023-06-04T05:33:28.003Z,62.20
2023-06-04T05:34:28.013Z,61.87
2023-06-04T05:35:28.031Z,61.22
2023-06-04T05:36:28.052Z,61.05
2023-06-04T05:37:28.068Z,61.47
2023-06-04T05:38:28.066Z,60.44
2023-06-04T05:39:28.080Z,60.04
2023-06-04T05:40:28.137Z,60.04
2023-06-04T05:41:28.186Z,59.53
2023-06-04T05:42:28.210Z,58.96
2023-06-04T05:43:28.251Z,58.56
2023-06-04T05:44:28.268Z,59.27
2023-06-04T05:45:28.267Z,59.10
2023-06-04T05:46:28.392Z,59.39
2023-06-04T05:47:28.449Z,59.20
2023-06-04T05:48:28.402Z,59.15
2023-06-04T05:49:28.402Z,59.55
2023-06-04T05:50:28.387Z,58.92
2023-06-04T05:51:28.373Z,59.26
2023-06-04T05:52:28.433Z,58.75
2023-06-04T05:53:28.632Z,58.90
2023-06-04T05:54:28.483Z,58.63
2023-06-04T05:55:28.496Z,58.52
2023-06-04T05:56:28.560Z,58.64
2023-06-04T05:57:28.561Z,57.13
2023-06-04T05:58:28.646Z,56.75
2023-06-04T05:59:28.689Z,56.43
2023-06-04T06:00:28.656Z,56.60
2023-06-04T06:01:28.674Z,56.36
2023-06-04T06:02:28.776Z,55.68
2023-06-04T06:03:28.903Z,55.67
2023-06-04T06:04:28.878Z,55.71
2023-06-04T06:05:28.824Z,55.28
2023-06-04T06:06:28.889Z,55.06
2023-06-04T06:07:28.880Z,54.65
2023-06-04T06:08:28.877Z,53.87
2023-06-04T06:09:28.952Z,54.77
2023-06-04T06:10:28.972Z,55.24
2023-06-04T06:11:29.028Z,54.71
2023-06-04T06:12:29.077Z,54.27
2023-06-04T06:13:29.088Z,54.18
2023-06-04T06:14:29.092Z,54.03
2023-06-04T06:15:29.136Z,53.95
2023-06-04T06:16:29.218Z,53.59
2023-06-04T06:17:29.246Z,54.65
2023-06-04T06:18:29.230Z,54.89
2023-06-04T06:19:29.227Z,55.01
2023-06-04T06:20:29.279Z,54.84
2023-06-04T06:21:29.277Z,54.72
2023-06-04T06:22:29.297Z,54.58
2023-06-04T06:23:29.341Z,54.45
2023-06-04T06:24:29.370Z,54.80
2023-06-04T06:25:29.373Z,54.16
2023-06-04T06:26:29.408Z,53.85
2023-06-04T06:27:29.419Z,53.19
2023-06-04T06:28:29.497Z,52.25
2023-06-04T06:29:29.498Z,51.82
2023-06-04T06:30:29.584Z,50.92
2023-06-04T06:31:29.621Z,51.37
2023-06-04T06:32:29.589Z,50.39
2023-06-04T06:33:29.638Z,49.98
2023-06-04T06:34:29.645Z,49.21
2023-06-04T06:35:30.107Z,48.94
2023-06-04T06:36:29.718Z,47.23
2023-06-04T06:37:29.713Z,47.68
2023-06-04T06:38:29.778Z,46.74
2023-06-04T06:39:29.766Z,46.64
2023-06-04T06:40:29.827Z,45.52
2023-06-04T06:41:29.891Z,44.82
2023-06-04T06:42:29.946Z,44.73
2023-06-04T06:43:29.965Z,44.52
2023-06-04T06:44:30.063Z,43.64
2023-06-04T06:45:30.077Z,43.84
2023-06-04T06:46:30.106Z,43.73
2023-06-04T06:47:30.143Z,42.96
2023-06-04T06:48:30.168Z,43.14
2023-06-04T06:49:30.206Z,42.59
2023-06-04T06:50:30.258Z,42.44
2023-06-04T06:51:30.263Z,41.26
2023-06-04T06:52:31.569Z,40.81
2023-06-04T06:53:30.330Z,40.96
2023-06-04T06:54:30.314Z,42.14
2023-06-04T06:55:30.289Z,41.65
2023-06-04T06:56:30.297Z,40.37
2023-06-04T06:57:30.307Z,39.82
2023-06-04T06:58:30.321Z,38.74
2023-06-04T06:59:30.320Z,38.75
2023-06-04T07:00:30.329Z,40.11
2023-06-04T07:01:30.357Z,39.81
2023-06-04T07:02:30.349Z,39.66
2023-06-04T07:03:30.285Z,38.93
2023-06-04T07:04:30.236Z,38.45
2023-06-04T07:05:30.259Z,37.28
2023-06-04T07:06:30.221Z,37.20
2023-06-04T07:07:30.208Z,37.30
2023-06-04T07:08:30.235Z,37.87
2023-06-04T07:09:30.237Z,37.99
2023-06-04T07:10:30.185Z,37.67
2023-06-04T07:11:30.188Z,38.40
2023-06-04T07:12:30.203Z,38.75
2023-06-04T07:13:30.140Z,39.68
2023-06-04T07:14:30.166Z,39.27
2023-06-04T07:15:30.177Z,39.40
2023-06-04T07:16:30.226Z,38.76
2023-06-04T07:17:30.157Z,38.32
2023-06-04T07:18:30.141Z,38.75
2023-06-04T07:19:30.147Z,38.56
2023-06-04T07:20:30.140Z,38.54
2023-06-04T07:21:30.100Z,38.56
2023-06-04T07:22:30.086Z,38.07
2023-06-04T07:23:30.182Z,38.91
2023-06-04T07:24:30.115Z,38.72
2023-06-04T07:25:30.075Z,39.16
2023-06-04T07:26:31.889Z,39.13
2023-06-04T07:27:30.082Z,40.78
2023-06-04T07:28:30.107Z,42.95
2023-06-04T07:29:30.072Z,43.59
2023-06-04T07:30:30.044Z,42.81
2023-06-04T07:31:30.080Z,42.02
2023-06-04T07:32:30.060Z,41.31
2023-06-04T07:33:30.739Z,40.88
2023-06-04T07:34:30.042Z,40.97
2023-06-04T07:35:30.033Z,41.59
2023-06-04T07:36:30.002Z,41.89
2023-06-04T07:37:30.003Z,41.13
2023-06-04T07:38:30.020Z,41.47
2023-06-04T07:39:30.075Z,41.18
2023-06-04T07:40:29.971Z,40.68
2023-06-04T07:41:30.023Z,40.20
2023-06-04T07:42:29.995Z,39.13
2023-06-04T07:43:29.936Z,37.80
2023-06-04T07:44:29.968Z,37.94
2023-06-04T07:45:30.907Z,37.36
2023-06-04T07:46:30.022Z,36.86
2023-06-04T07:47:29.995Z,36.46
2023-06-04T07:48:29.928Z,36.65
2023-06-04T07:49:29.979Z,36.28
2023-06-04T07:50:29.932Z,35.53
2023-06-04T07:51:29.874Z,35.31
2023-06-04T07:52:29.913Z,34.82
2023-06-04T07:53:29.894Z,34.70
2023-06-04T07:54:29.915Z,34.94
2023-06-04T07:55:29.878Z,35.15
2023-06-04T07:56:29.879Z,35.22
2023-06-04T07:57:29.896Z,34.48
2023-06-04T07:58:29.895Z,33.44
2023-06-04T07:59:29.929Z,34.20
2023-06-04T08:00:29.914Z,34.51
2023-06-04T08:01:29.915Z,35.44
2023-06-04T08:02:30.042Z,35.65
2023-06-04T08:03:30.119Z,34.78
2023-06-04T08:04:30.121Z,34.40
2023-06-04T08:05:30.088Z,34.62
2023-06-04T08:06:30.094Z,34.76
2023-06-04T08:07:30.156Z,34.25
2023-06-04T08:08:30.160Z,33.34
2023-06-04T08:09:30.206Z,33.50
2023-06-04T08:10:30.190Z,33.65
2023-06-04T08:11:30.228Z,33.37
2023-06-04T08:12:30.328Z,34.01
2023-06-04T08:13:30.354Z,33.42
2023-06-04T08:14:30.304Z,34.03
2023-06-04T08:15:30.406Z,34.53
2023-06-04T08:16:30.434Z,34.33
2023-06-04T08:17:30.402Z,34.44
2023-06-04T08:18:30.440Z,34.15
2023-06-04T08:19:30.417Z,34.02
2023-06-04T08:20:30.460Z,33.02
2023-06-04T08:21:30.492Z,33.33
2023-06-04T08:22:30.518Z,33.23
2023-06-04T08:23:30.565Z,33.01
2023-06-04T08:24:30.574Z,32.71
2023-06-04T08:25:30.600Z,32.15
2023-06-04T08:26:30.668Z,31.94
2023-06-04T08:27:30.674Z,31.86
2023-06-04T08:28:30.728Z,32.82
2023-06-04T08:29:30.755Z,32.59
2023-06-04T08:30:30.733Z,33.55
2023-06-04T08:31:30.822Z,32.80
2023-06-04T08:32:30.883Z,32.92
2023-06-04T08:33:30.893Z,32.04
2023-06-04T08:34:30.959Z,31.21
2023-06-04T08:35:30.939Z,31.43
2023-06-04T08:36:30.940Z,33.01
2023-06-04T08:37:30.973Z,34.43
2023-06-04T08:38:31.024Z,34.30
2023-06-04T08:39:31.066Z,33.94
2023-06-04T08:40:31.029Z,33.08
2023-06-04T08:41:31.127Z,31.88
2023-06-04T08:42:31.209Z,31.39
2023-06-04T08:43:31.167Z,30.61
2023-06-04T08:44:31.247Z,30.26
2023-06-04T08:45:31.275Z,30.33
2023-06-04T08:46:31.318Z,29.88
2023-06-04T08:47:31.347Z,30.20
2023-06-04T08:48:31.334Z,30.55
2023-06-04T08:49:31.378Z,32.73
2023-06-04T08:50:31.505Z,32.36
2023-06-04T08:51:31.445Z,31.70
2023-06-04T08:52:31.464Z,30.79
2023-06-04T08:53:31.573Z,30.26
2023-06-04T08:54:31.563Z,29.75
2023-06-04T08:55:31.611Z,30.49
2023-06-04T08:56:31.564Z,29.88
2023-06-04T08:57:31.645Z,30.74
2023-06-04T08:58:31.643Z,32.69
2023-06-04T08:59:31.658Z,32.25
2023-06-04T09:00:31.649Z,31.69
2023-06-04T09:01:31.768Z,31.83
2023-06-04T09:02:31.819Z,32.94
2023-06-04T09:03:31.787Z,35.67
2023-06-04T09:04:31.779Z,36.25
2023-06-04T09:05:31.821Z,35.23
2023-06-04T09:06:31.917Z,34.01
2023-06-04T09:07:31.911Z,33.30
2023-06-04T09:08:31.911Z,33.21
2023-06-04T09:09:32.010Z,33.02
2023-06-04T09:10:32.077Z,32.92
2023-06-04T09:11:32.093Z,32.41
2023-06-04T09:12:33.316Z,32.29
2023-06-04T09:13:32.116Z,33.18
2023-06-04T09:14:32.122Z,32.54
2023-06-04T09:15:32.169Z,32.54
2023-06-04T09:16:32.232Z,31.99
2023-06-04T09:17:32.235Z,31.24
2023-06-04T09:18:32.248Z,31.99
2023-06-04T09:19:32.261Z,33.05
2023-06-04T09:20:32.321Z,32.50
2023-06-04T09:21:32.309Z,32.18
2023-06-04T09:22:32.316Z,32.41
2023-06-04T09:23:32.414Z,35.98
2023-06-04T09:24:32.425Z,35.80
2023-06-04T09:25:32.465Z,38.45
2023-06-04T09:26:32.508Z,37.70
2023-06-04T09:27:32.468Z,36.92
2023-06-04T09:28:32.495Z,35.92
2023-06-04T09:29:32.519Z,35.64
2023-06-04T09:30:32.588Z,35.16
2023-06-04T09:31:32.709Z,34.82
2023-06-04T09:32:32.690Z,33.85
2023-06-04T09:33:32.661Z,33.43
2023-06-04T09:34:32.718Z,33.01
2023-06-04T09:35:32.725Z,33.96
2023-06-04T09:36:32.710Z,35.80
2023-06-04T09:37:32.767Z,36.29
2023-06-04T09:38:32.783Z,36.56
2023-06-04T09:39:32.836Z,38.22
2023-06-04T09:40:32.845Z,37.14
2023-06-04T09:41:32.856Z,36.00
2023-06-04T09:42:32.860Z,34.77
2023-06-04T09:43:32.922Z,34.16
2023-06-04T09:44:32.933Z,33.70
2023-06-04T09:45:33.223Z,32.57
2023-06-04T09:46:33.149Z,32.02
2023-06-04T09:47:33.032Z,31.39
2023-06-04T09:48:33.006Z,31.26
2023-06-04T09:49:33.071Z,31.18
2023-06-04T09:50:33.123Z,32.33
2023-06-04T09:51:33.160Z,33.19
2023-06-04T09:52:33.169Z,31.98
2023-06-04T09:54:31.138Z,30.56
2023-06-04T09:55:31.109Z,30.40
2023-06-04T09:56:31.108Z,31.17
2023-06-04T09:57:31.098Z,36.69
2023-06-04T09:58:31.078Z,37.26
2023-06-04T09:59:31.107Z,37.43
2023-06-04T10:00:31.077Z,35.87
2023-06-04T10:01:31.235Z,35.51
2023-06-04T10:02:31.095Z,34.17
2023-06-04T10:03:31.164Z,35.02
2023-06-04T10:04:31.038Z,35.81
2023-06-04T10:05:31.065Z,36.36
2023-06-04T10:06:31.025Z,36.01
2023-06-04T10:07:31.021Z,36.07
2023-06-04T10:08:31.033Z,35.55
2023-06-04T10:09:33.314Z,35.88
2023-06-04T10:10:31.119Z,36.25
2023-06-04T10:11:31.106Z,37.95
2023-06-04T10:12:31.120Z,37.83
2023-06-04T10:13:31.175Z,37.37
2023-06-04T10:14:31.204Z,36.73
2023-06-04T10:15:31.245Z,35.80
2023-06-04T10:16:34.688Z,35.03
2023-06-04T10:17:31.303Z,35.04
2023-06-04T10:18:31.269Z,35.00
2023-06-04T10:19:31.286Z,35.12
2023-06-04T10:20:31.256Z,34.91
2023-06-04T10:21:31.258Z,34.96
2023-06-04T10:22:31.261Z,35.74
2023-06-04T10:23:31.294Z,37.86
2023-06-04T10:24:31.215Z,37.95
2023-06-04T10:25:31.226Z,36.44
2023-06-04T10:26:31.206Z,35.48
2023-06-04T10:27:31.220Z,34.64
2023-06-04T10:28:31.178Z,33.88
2023-06-04T10:29:31.200Z,33.71
2023-06-04T10:30:31.184Z,33.57
2023-06-04T10:31:31.267Z,34.08
2023-06-04T10:32:31.201Z,34.03
2023-06-04T10:33:31.124Z,34.93
2023-06-04T10:34:31.178Z,36.11
2023-06-04T10:35:31.151Z,35.55
2023-06-04T10:36:31.145Z,35.12
2023-06-04T10:37:31.156Z,34.73
2023-06-04T10:38:31.102Z,34.46
2023-06-04T10:39:31.170Z,33.84
2023-06-04T10:40:31.120Z,33.41
2023-06-04T10:41:31.117Z,33.24
2023-06-04T10:42:31.104Z,33.07
2023-06-04T10:43:31.068Z,32.63
2023-06-04T10:44:31.087Z,32.59
2023-06-04T10:45:31.083Z,32.49
2023-06-04T10:46:31.070Z,32.13
2023-06-04T10:47:31.108Z,32.61
2023-06-04T10:48:31.077Z,31.94
2023-06-04T10:49:31.133Z,32.01
2023-06-04T10:50:31.005Z,33.50
2023-06-04T10:51:31.017Z,35.06
2023-06-04T10:52:31.024Z,34.92
2023-06-04T10:53:30.989Z,34.13
2023-06-04T10:54:31.013Z,34.51
2023-06-04T10:55:30.985Z,34.12
2023-06-04T10:56:30.972Z,33.43
2023-06-04T10:57:30.980Z,32.76
2023-06-04T10:58:30.985Z,32.71
2023-06-04T10:59:30.978Z,32.37
2023-06-04T11:00:30.959Z,32.87
2023-06-04T11:01:31.002Z,32.71
2023-06-04T11:02:30.989Z,33.09
2023-06-04T11:03:31.062Z,34.70
2023-06-04T11:04:31.027Z,34.35
2023-06-04T11:05:31.143Z,33.77
2023-06-04T11:06:31.152Z,33.89
2023-06-04T11:07:31.200Z,33.35
2023-06-04T11:08:31.230Z,33.38
2023-06-04T11:09:32.241Z,34.49
2023-06-04T11:10:31.338Z,34.75
2023-06-04T11:11:31.289Z,34.58
2023-06-04T11:12:31.289Z,34.48
2023-06-04T11:13:31.355Z,34.17
2023-06-04T11:14:31.365Z,34.01
2023-06-04T11:15:31.404Z,34.38
2023-06-04T11:16:31.434Z,35.47
2023-06-04T11:17:31.542Z,35.64
2023-06-04T11:18:31.525Z,35.43
2023-06-04T11:19:31.484Z,35.13
2023-06-04T11:20:31.536Z,35.32
2023-06-04T11:21:31.599Z,35.21
2023-06-04T11:22:31.618Z,35.43
2023-06-04T11:23:31.681Z,36.24
2023-06-04T11:24:31.661Z,36.57
2023-06-04T11:25:31.724Z,37.78
2023-06-04T11:26:31.774Z,37.71
2023-06-04T11:27:36.857Z,38.33
2023-06-04T11:28:32.818Z,38.79
2023-06-04T11:29:31.803Z,38.08
2023-06-04T11:30:31.782Z,38.99
2023-06-04T11:31:31.842Z,40.06
2023-06-04T11:32:31.858Z,40.89
2023-06-04T11:33:31.797Z,41.12
2023-06-04T11:34:31.817Z,41.43
2023-06-04T11:35:31.796Z,40.94
2023-06-04T11:36:31.783Z,40.01
2023-06-04T11:37:31.825Z,39.46
2023-06-04T11:38:31.717Z,39.38
2023-06-04T11:39:31.721Z,38.96
2023-06-04T11:40:31.733Z,38.29
2023-06-04T11:41:31.750Z,38.12
2023-06-04T11:42:31.698Z,38.28
2023-06-04T11:43:31.693Z,38.68
2023-06-04T11:44:31.776Z,41.34
2023-06-04T11:45:31.836Z,41.81
2023-06-04T11:46:31.777Z,41.63
2023-06-04T11:47:31.923Z,41.37
2023-06-04T11:48:31.957Z,40.67
2023-06-04T11:49:31.865Z,40.21
2023-06-04T11:50:31.946Z,39.40
2023-06-04T11:51:32.010Z,39.20
2023-06-04T11:52:32.033Z,39.39
2023-06-04T11:53:32.066Z,40.29
2023-06-04T11:54:32.141Z,40.86
2023-06-04T11:55:32.159Z,40.38
2023-06-04T11:56:32.151Z,39.51
2023-06-04T11:57:32.256Z,41.18
2023-06-04T11:58:32.200Z,41.14
2023-06-04T11:59:32.277Z,40.34
2023-06-04T12:00:32.287Z,39.40
2023-06-04T12:01:32.262Z,38.48
2023-06-04T12:02:32.330Z,37.98
2023-06-04T12:03:32.282Z,37.84
2023-06-04T12:04:32.306Z,39.48
2023-06-04T12:05:32.465Z,42.51
2023-06-04T12:06:32.363Z,42.31
2023-06-04T12:07:32.396Z,42.20
2023-06-04T12:08:32.412Z,41.48
2023-06-04T12:09:32.524Z,41.38
2023-06-04T12:10:32.513Z,41.00
2023-06-04T12:11:32.634Z,40.85
2023-06-04T12:12:32.614Z,40.27
2023-06-04T12:13:32.644Z,41.04
2023-06-04T12:14:32.724Z,40.52
2023-06-04T12:15:32.689Z,40.20
2023-06-04T12:16:32.738Z,39.38
2023-06-04T12:17:32.828Z,38.40
2023-06-04T12:18:32.815Z,38.23
2023-06-04T12:19:32.822Z,38.29
2023-06-04T12:20:32.867Z,37.74
2023-06-04T12:21:32.885Z,37.52
2023-06-04T12:22:32.888Z,37.15
2023-06-04T12:23:32.938Z,37.69
2023-06-04T12:24:32.921Z,37.22
2023-06-04T12:25:33.010Z,36.39
2023-06-04T12:26:33.032Z,36.44
2023-06-04T12:27:33.076Z,35.46
2023-06-04T12:28:33.084Z,34.74
2023-06-04T12:29:33.068Z,34.41
2023-06-04T12:30:33.151Z,34.74
2023-06-04T12:31:33.331Z,34.05
2023-06-04T12:32:33.241Z,33.95
2023-06-04T12:33:33.247Z,34.06
2023-06-04T12:34:33.269Z,33.87
2023-06-04T12:35:33.280Z,34.39
2023-06-04T12:36:33.292Z,34.72
2023-06-04T12:37:33.284Z,34.90
2023-06-04T12:38:33.363Z,33.99
2023-06-04T12:39:33.373Z,35.73
2023-06-04T12:40:33.422Z,35.74
2023-06-04T12:41:33.485Z,35.25
2023-06-04T12:42:33.492Z,35.69
2023-06-04T12:43:33.533Z,36.97
2023-06-04T12:44:35.697Z,36.96
2023-06-04T12:45:33.718Z,37.62
2023-06-04T12:46:33.763Z,37.21
2023-06-04T12:47:33.826Z,37.59
2023-06-04T12:48:33.812Z,37.82
2023-06-04T12:49:33.858Z,37.84
2023-06-04T12:50:33.876Z,37.66
2023-06-04T12:51:33.924Z,37.21
2023-06-04T12:52:33.972Z,36.99
2023-06-04T12:53:34.016Z,37.10